Time;durP1;ratioP1;P1;durP2;ratioP2;P2;SDS_P1;SDS_P2;PMS_P1;PMS_P2;Temp;Humidity;BMP_temperature;BMP_pressure;BME280_temperature;BME280_humidity;BME280_pressure;Samples;Min_cycle;Max_cycle;Signal;HPM_P1;HPM_P2
2023/01/21 05:01:30;;;;;;;28.17;19.40;;;0.70;99.90;;;;;;5377584;23;20064;-77
2023/01/21 05:03:57;;;;;;;30.05;20.40;;;0.60;99.90;;;;;;4889145;29;20053;-76
2023/01/21 05:06:24;;;;;;;26.48;18.67;;;0.70;99.90;;;;;;4887481;29;20409;-77
2023/01/21 05:08:51;;;;;;;27.98;19.90;;;0.60;99.90;;;;;;4884261;29;20064;-77
2023/01/21 05:11:19;;;;;;;27.83;20.10;;;0.40;99.90;;;;;;4853980;29;20064;-77
2023/01/21 05:13:46;;;;;;;26.08;17.27;;;0.30;99.90;;;;;;4841920;29;20060;-77
2023/01/21 05:16:13;;;;;;;27.48;18.23;;;0.50;99.90;;;;;;4857344;29;20410;-76
2023/01/21 05:18:40;;;;;;;29.20;19.20;;;0.30;99.90;;;;;;4863805;29;20513;-76
2023/01/21 05:21:07;;;;;;;29.05;19.02;;;0.10;99.90;;;;;;4875042;29;20052;-77
2023/01/21 05:23:34;;;;;;;29.33;19.45;;;0.00;99.90;;;;;;4878223;29;20099;-76
2023/01/21 05:26:01;;;;;;;28.30;18.40;;;0.50;99.90;;;;;;4886286;29;20048;-77
2023/01/21 05:28:28;;;;;;;27.02;18.73;;;0.10;99.90;;;;;;4859834;29;20053;-77
2023/01/21 05:30:59;;;;;;;25.95;18.35;;;0.30;99.90;;;;;;4866776;29;20113;-77
2023/01/21 05:33:30;;;;;;;27.63;17.73;;;-0.20;99.90;;;;;;4874964;29;20105;-77
2023/01/21 05:35:58;;;;;;;27.30;17.20;;;0.00;99.90;;;;;;4861699;29;20072;-77
2023/01/21 05:38:25;;;;;;;28.52;18.15;;;0.00;99.90;;;;;;4841264;29;20082;-77
2023/01/21 05:40:57;;;;;;;28.52;18.52;;;0.10;99.90;;;;;;4863650;29;20054;-77
2023/01/21 05:43:24;;;;;;;27.23;16.38;;;0.10;99.90;;;;;;4882515;29;20484;-76
2023/01/21 05:45:51;;;;;;;27.05;17.67;;;0.00;99.90;;;;;;4875537;29;20534;-76
2023/01/21 05:48:18;;;;;;;27.70;18.90;;;-2.50;99.90;;;;;;4891170;29;20048;-76
2023/01/21 05:50:45;;;;;;;25.55;16.83;;;0.10;99.90;;;;;;4891777;29;20041;-77
2023/01/21 05:53:13;;;;;;;25.73;17.25;;;-0.20;99.90;;;;;;4875166;29;20053;-77
2023/01/21 05:55:39;;;;;;;29.13;18.85;;;0.00;99.90;;;;;;4876262;29;20526;-77
2023/01/21 05:58:06;;;;;;;26.27;18.85;;;-0.20;99.90;;;;;;4859326;29;20104;-77
2023/01/21 06:00:33;;;;;;;27.17;18.25;;;0.00;99.90;;;;;;4877011;29;20422;-77
2023/01/21 06:03:01;;;;;;;28.17;18.13;;;-0.10;99.90;;;;;;4885105;29;20124;-77
2023/01/21 06:05:28;;;;;;;26.17;17.05;;;-0.30;99.90;;;;;;4874638;29;20053;-76
2023/01/21 06:07:55;;;;;;;24.67;16.95;;;-0.30;99.90;;;;;;4874928;29;20053;-77
2023/01/21 06:10:22;;;;;;;28.95;18.77;;;1.10;99.90;;;;;;4859211;29;20407;-76
2023/01/21 06:12:50;;;;;;;29.63;18.70;;;-0.20;99.90;;;;;;4875837;29;20048;-77
2023/01/21 06:15:18;;;;;;;27.63;17.63;;;1.20;99.90;;;;;;4874818;29;20045;-76
2023/01/21 06:17:45;;;;;;;28.95;18.33;;;-0.30;99.90;;;;;;4835949;29;20054;-77
2023/01/21 06:20:13;;;;;;;24.00;16.73;;;-0.30;99.90;;;;;;4809799;29;20073;-77
2023/01/21 06:22:40;;;;;;;25.55;16.95;;;-0.50;99.90;;;;;;4830197;29;20449;-77
2023/01/21 06:25:08;;;;;;;44.25;25.60;;;1.70;99.90;;;;;;4838237;29;20057;-77
2023/01/21 06:27:37;;;;;;;33.80;22.05;;;-0.70;99.90;;;;;;4835606;29;20197;-77
2023/01/21 06:30:09;;;;;;;33.87;20.90;;;-0.60;99.90;;;;;;4820337;29;20064;-77
2023/01/21 06:32:36;;;;;;;33.70;20.48;;;-0.90;99.90;;;;;;4831466;29;20294;-77
2023/01/21 06:35:06;;;;;;;36.30;22.95;;;-1.00;99.90;;;;;;4835260;29;20535;-77
2023/01/21 06:37:33;;;;;;;42.75;24.38;;;-0.60;99.90;;;;;;4835256;29;20069;-76
2023/01/21 06:39:59;;;;;;;38.75;23.23;;;-0.70;99.90;;;;;;4835387;29;20118;-78
2023/01/21 06:42:26;;;;;;;36.63;22.02;;;1.40;99.90;;;;;;4834741;29;20076;-77
2023/01/21 06:44:53;;;;;;;43.92;27.73;;;-0.70;99.90;;;;;;4853998;29;20054;-76
2023/01/21 06:47:20;;;;;;;48.45;32.17;;;-0.90;99.90;;;;;;4838658;29;20748;-77
2023/01/21 06:49:47;;;;;;;41.70;27.65;;;-1.00;99.90;;;;;;4872341;29;20068;-78
2023/01/21 06:52:15;;;;;;;44.22;25.92;;;-0.80;99.90;;;;;;4894115;29;20048;-77
2023/01/21 06:54:42;;;;;;;34.65;22.55;;;-1.00;99.90;;;;;;4878204;29;20048;-77
2023/01/21 06:57:10;;;;;;;30.67;19.58;;;-0.90;99.90;;;;;;4893685;29;20041;-76
2023/01/21 06:59:36;;;;;;;29.40;19.63;;;-0.70;99.90;;;;;;4878029;29;20091;-77
2023/01/21 07:02:03;;;;;;;25.45;15.55;;;-0.90;99.90;;;;;;4881352;29;20049;-76
2023/01/21 07:04:31;;;;;;;33.88;25.70;;;0.50;99.90;;;;;;4858956;29;20048;-77
2023/01/21 07:06:58;;;;;;;27.92;19.20;;;1.20;99.90;;;;;;4858297;29;20081;-77
2023/01/21 07:09:25;;;;;;;29.85;17.42;;;-0.90;99.90;;;;;;4875216;29;20065;-77
2023/01/21 07:11:52;;;;;;;25.10;16.60;;;-0.80;99.90;;;;;;4884706;29;20049;-78
2023/01/21 07:14:19;;;;;;;25.92;15.32;;;0.20;99.90;;;;;;4879149;29;20057;-76
2023/01/21 07:16:46;;;;;;;30.35;17.38;;;-0.60;99.90;;;;;;4873693;29;20053;-76
2023/01/21 07:19:13;;;;;;;28.60;17.27;;;-0.70;99.90;;;;;;4873725;29;20053;-76
2023/01/21 07:21:40;;;;;;;26.80;16.83;;;0.00;99.90;;;;;;4858007;29;20458;-76
2023/01/21 07:24:08;;;;;;;26.02;16.38;;;0.10;99.90;;;;;;4874454;29;20053;-76
2023/01/21 07:26:36;;;;;;;26.83;16.90;;;1.30;99.90;;;;;;4858083;29;20060;-77
2023/01/21 07:29:05;;;;;;;25.88;16.35;;;-0.90;99.90;;;;;;4858853;29;20056;-76
2023/01/21 07:31:32;;;;;;;24.85;16.08;;;-0.90;99.90;;;;;;4880457;29;20049;-76
2023/01/21 07:33:59;;;;;;;28.02;16.90;;;-0.90;99.90;;;;;;4876190;29;20590;-76
2023/01/21 07:36:26;;;;;;;21.40;14.50;;;-1.00;99.90;;;;;;4873287;29;20074;-75
2023/01/21 07:38:53;;;;;;;26.05;15.98;;;-0.90;99.90;;;;;;4858032;29;20429;-76
2023/01/21 07:41:20;;;;;;;23.50;15.65;;;-1.10;99.90;;;;;;4866040;29;20121;-76
2023/01/21 07:43:47;;;;;;;24.98;16.60;;;1.10;99.90;;;;;;4860133;29;20061;-76
2023/01/21 07:46:21;;;;;;;27.73;18.45;;;-0.90;99.90;;;;;;4838581;29;20122;-77
2023/01/21 07:48:50;;;;;;;36.42;23.20;;;1.00;99.90;;;;;;4827519;29;20137;-76
2023/01/21 07:51:21;;;;;;;37.63;26.88;;;-1.10;99.90;;;;;;4869107;29;20044;-77
2023/01/21 07:53:48;;;;;;;31.92;25.05;;;-0.90;99.90;;;;;;4857860;29;20546;-77
2023/01/21 07:56:16;;;;;;;40.72;27.65;;;0.40;99.90;;;;;;4875347;29;20098;-76
2023/01/21 07:58:45;;;;;;;33.33;22.00;;;-1.00;99.90;;;;;;4849366;29;20057;-77
2023/01/21 08:01:12;;;;;;;35.20;22.23;;;1.90;99.90;;;;;;4869820;29;20066;-77
2023/01/21 08:03:39;;;;;;;39.53;25.10;;;-0.80;99.90;;;;;;4867160;29;20049;-77
2023/01/21 08:06:06;;;;;;;37.72;21.20;;;-0.90;99.90;;;;;;4872313;29;20072;-78
2023/01/21 08:08:33;;;;;;;31.05;20.70;;;-0.70;99.90;;;;;;4853004;29;20095;-77
2023/01/21 08:11:00;;;;;;;31.38;19.20;;;-0.60;99.90;;;;;;4868773;29;20052;-77
2023/01/21 08:13:27;;;;;;;30.80;21.17;;;-0.60;99.90;;;;;;4870259;29;20422;-78
2023/01/21 08:15:55;;;;;;;31.42;19.60;;;-0.60;99.90;;;;;;4872579;29;20136;-77
2023/01/21 08:18:23;;;;;;;31.63;20.80;;;-0.40;99.90;;;;;;4881074;29;20132;-77
2023/01/21 08:20:55;;;;;;;28.73;18.95;;;-0.50;99.90;;;;;;4868090;29;20056;-78
2023/01/21 08:23:21;;;;;;;26.20;17.35;;;-0.20;99.90;;;;;;4864761;29;20049;-77
2023/01/21 08:25:48;;;;;;;27.45;19.27;;;-0.20;99.90;;;;;;4857932;29;20057;-77
2023/01/21 08:28:17;;;;;;;27.50;18.48;;;-0.10;99.90;;;;;;4864714;29;20110;-77
2023/01/21 08:30:44;;;;;;;28.35;17.88;;;-0.10;99.90;;;;;;4860929;29;20049;-76
2023/01/21 08:33:11;;;;;;;28.88;19.92;;;-0.20;99.90;;;;;;4885718;29;20052;-73
2023/01/21 08:35:39;;;;;;;32.15;21.15;;;-0.10;99.90;;;;;;4874212;29;20052;-75
2023/01/21 08:38:06;;;;;;;41.65;25.95;;;0.00;99.90;;;;;;4864215;29;20056;-71
2023/01/21 08:40:33;;;;;;;45.47;28.42;;;-0.20;99.90;;;;;;4880088;29;20079;-74
2023/01/21 08:43:02;;;;;;;46.00;28.90;;;0.00;99.90;;;;;;4860649;29;20061;-73
2023/01/21 08:45:32;;;;;;;41.58;27.35;;;1.90;99.90;;;;;;4861086;29;20664;-72
2023/01/21 08:48:02;;;;;;;;;;;1.50;99.90;;;;;;4868930;29;20560;-73
2023/01/21 08:50:29;;;;;;;52.67;32.22;;;0.00;99.90;;;;;;4867651;29;20342;-72
2023/01/21 08:52:56;;;;;;;70.03;38.75;;;0.00;99.90;;;;;;4864290;29;20056;-72
2023/01/21 08:55:25;;;;;;;89.63;50.22;;;0.10;99.90;;;;;;4852732;29;20562;-73
2023/01/21 08:57:57;;;;;;;68.65;42.65;;;0.10;99.90;;;;;;4859785;29;20057;-72
2023/01/21 09:00:26;;;;;;;42.55;28.00;;;0.00;99.90;;;;;;4860033;29;20040;-73
2023/01/21 09:02:54;;;;;;;37.38;25.80;;;2.10;99.90;;;;;;4868391;29;20053;-72
2023/01/21 09:05:21;;;;;;;35.47;23.75;;;0.10;99.90;;;;;;4858396;29;20105;-72
2023/01/21 09:07:48;;;;;;;33.67;23.08;;;0.20;99.90;;;;;;4826544;29;20615;-73
2023/01/21 09:13:25;;;;;;;32.50;21.98;;;0.10;99.90;;;;;;4863034;29;20487;-73
2023/01/21 09:15:54;;;;;;;32.85;21.98;;;2.40;99.90;;;;;;4860728;29;20577;-73
2023/01/21 09:18:22;;;;;;;33.65;22.70;;;1.60;99.90;;;;;;4859585;29;20072;-73
2023/01/21 09:20:49;;;;;;;31.13;23.60;;;0.40;99.90;;;;;;4859882;29;20045;-74
2023/01/21 09:23:25;;;;;;;32.03;21.88;;;0.60;99.90;;;;;;4887467;29;20064;-73
2023/01/21 09:26:09;;;;;;;33.65;22.50;;;1.40;99.90;;;;;;4861218;29;20081;-74
2023/01/21 09:28:37;;;;;;;33.78;21.55;;;0.60;99.90;;;;;;4860094;29;20676;-74
2023/01/21 09:31:06;;;;;;;34.03;22.02;;;0.70;99.90;;;;;;4876551;29;20112;-72
2023/01/21 09:33:35;;;;;;;28.23;19.13;;;0.60;99.90;;;;;;4876036;29;20052;-73
2023/01/21 09:36:04;;;;;;;33.72;19.85;;;1.10;99.90;;;;;;4855072;29;20461;-73
2023/01/21 09:38:31;;;;;;;27.05;19.92;;;1.00;99.90;;;;;;4840990;29;20037;-72
2023/01/21 09:41:12;;;;;;;28.83;20.50;;;0.90;99.90;;;;;;4860054;29;20049;-73
2023/01/21 09:43:43;;;;;;;26.52;18.13;;;1.30;99.90;;;;;;4893325;29;20046;-73
2023/01/21 09:46:16;;;;;;;28.38;19.10;;;1.30;99.90;;;;;;4860445;29;20060;-72
2023/01/21 09:48:46;;;;;;;27.77;18.48;;;1.40;99.90;;;;;;4858841;29;20067;-72
2023/01/21 09:51:28;;;;;;;26.58;18.10;;;1.50;99.90;;;;;;4856321;29;20060;-73
2023/01/21 09:53:58;;;;;;;26.83;18.48;;;1.40;99.90;;;;;;4859440;29;20053;-72
2023/01/21 09:56:32;;;;;;;25.35;17.48;;;1.50;99.90;;;;;;4874914;29;20045;-73
2023/01/21 09:59:14;;;;;;;29.63;18.85;;;1.60;99.90;;;;;;4859138;29;20048;-73
2023/01/21 10:01:41;;;;;;;26.70;18.85;;;1.40;99.90;;;;;;4880548;29;20112;-73
2023/01/21 10:04:21;;;;;;;28.05;19.17;;;1.70;99.90;;;;;;4876542;29;20072;-73
2023/01/21 10:07:05;;;;;;;27.92;19.55;;;1.60;99.90;;;;;;4875574;29;20093;-72
2023/01/21 10:09:45;;;;;;;27.80;18.13;;;2.70;99.90;;;;;;4856612;29;20148;-73
2023/01/21 10:12:16;;;;;;;25.58;17.40;;;2.00;99.90;;;;;;4870815;29;20455;-73
2023/01/21 10:14:45;;;;;;;29.45;20.05;;;2.00;99.90;;;;;;4856328;29;20117;-73
2023/01/21 10:17:20;;;;;;;26.08;18.42;;;2.00;99.90;;;;;;4870031;29;20037;-73
2023/01/21 10:19:53;;;;;;;31.88;20.42;;;1.90;99.90;;;;;;4857499;29;20049;-73
2023/01/21 10:22:25;;;;;;;27.92;19.08;;;1.90;99.90;;;;;;4872978;29;20048;-73
2023/01/21 10:25:07;;;;;;;31.15;20.73;;;2.40;99.90;;;;;;4874298;29;20132;-73
2023/01/21 10:27:36;;;;;;;30.40;21.13;;;2.20;99.90;;;;;;4842307;29;20518;-75
2023/01/21 10:30:24;;;;;;;30.42;21.80;;;3.40;99.90;;;;;;4871861;29;20057;-73
2023/01/21 10:32:52;;;;;;;29.48;20.05;;;2.40;99.90;;;;;;4871404;29;20045;-73
2023/01/21 10:35:44;;;;;;;30.23;21.05;;;2.50;99.90;;;;;;4876486;29;20463;-73
2023/01/21 10:38:38;;;;;;;32.15;20.20;;;2.70;99.90;;;;;;4870897;29;20057;-73
2023/01/21 10:41:33;;;;;;;30.65;19.92;;;2.60;99.90;;;;;;4869447;29;20056;-72
2023/01/21 10:44:28;;;;;;;29.38;20.48;;;2.50;99.90;;;;;;4872947;29;20038;-76
2023/01/21 10:47:01;;;;;;;28.95;20.10;;;2.60;99.90;;;;;;4873701;29;20522;-68
2023/01/21 10:50:03;;;;;;;27.98;18.27;;;2.60;99.70;;;;;;4874969;29;20053;-73
2023/01/21 10:52:38;;;;;;;30.27;19.88;;;2.70;99.60;;;;;;4872743;29;20524;-73
2023/01/21 10:55:44;;;;;;;27.77;20.30;;;2.70;99.80;;;;;;4886294;29;20379;-73
2023/01/21 10:58:44;;;;;;;29.92;19.88;;;2.90;99.80;;;;;;4856034;29;20054;-73
2023/01/21 11:01:21;;;;;;;26.55;20.08;;;2.90;99.80;;;;;;4874288;29;20057;-73
2023/01/21 11:03:54;;;;;;;27.58;19.98;;;2.80;99.60;;;;;;4862970;29;20108;-74
2023/01/21 11:06:22;;;;;;;34.42;22.88;;;2.80;99.50;;;;;;4858678;29;20454;-72
2023/01/21 11:08:55;;;;;;;32.30;23.15;;;2.80;99.50;;;;;;4873542;29;20049;-72
2023/01/21 11:11:25;;;;;;;31.90;22.27;;;3.80;99.90;;;;;;4873361;29;20092;-73
2023/01/21 11:13:53;;;;;;;35.17;22.90;;;2.80;99.60;;;;;;4875045;29;20053;-73
2023/01/21 11:16:42;;;;;;;29.75;20.63;;;2.80;99.90;;;;;;4858480;29;20056;-72
2023/01/21 11:19:21;;;;;;;31.65;21.55;;;2.70;99.80;;;;;;4873123;29;20045;-73
2023/01/21 11:22:19;;;;;;;31.77;22.33;;;2.80;99.50;;;;;;4870433;29;20071;-73
2023/01/21 11:24:50;;;;;;;30.30;20.90;;;2.80;99.60;;;;;;4862954;29;20048;-72
2023/01/21 11:27:35;;;;;;;34.00;22.98;;;2.90;99.50;;;;;;4867366;29;20069;-72
2023/01/21 11:30:05;;;;;;;30.40;20.70;;;2.70;99.30;;;;;;4847099;29;20049;-72
2023/01/21 11:32:51;;;;;;;32.08;21.55;;;2.80;99.40;;;;;;4853550;29;20041;-72
2023/01/21 11:35:22;;;;;;;27.67;18.90;;;2.60;99.50;;;;;;4857600;29;20052;-73
2023/01/21 11:37:49;;;;;;;32.20;20.17;;;2.80;99.60;;;;;;4857119;29;20081;-72
2023/01/21 11:40:24;;;;;;;32.17;21.02;;;2.80;99.70;;;;;;4856630;29;20574;-72
2023/01/21 11:42:53;;;;;;;36.00;23.30;;;2.80;99.30;;;;;;4871355;29;20053;-72
2023/01/21 11:45:30;;;;;;;29.85;20.95;;;4.80;99.90;;;;;;4857050;29;20053;-72
2023/01/21 11:47:58;;;;;;;27.75;19.58;;;3.00;99.40;;;;;;4857811;29;20060;-72
2023/01/21 11:50:31;;;;;;;30.95;19.95;;;4.10;99.90;;;;;;4872481;29;20113;-73
2023/01/21 11:53:19;;;;;;;30.60;20.77;;;3.00;98.80;;;;;;4865698;29;20103;-72
2023/01/21 11:55:51;;;;;;;26.30;19.23;;;4.00;99.40;;;;;;4869944;29;20072;-73
2023/01/21 11:58:29;;;;;;;27.10;19.05;;;3.00;99.10;;;;;;4860393;29;20525;-73
2023/01/21 12:01:02;;;;;;;25.98;19.20;;;3.00;99.30;;;;;;4855404;29;20045;-72
2023/01/21 12:03:33;;;;;;;28.25;18.92;;;3.10;99.10;;;;;;4863459;29;20041;-73
2023/01/21 12:06:01;;;;;;;27.35;19.15;;;4.60;99.40;;;;;;4873104;29;20049;-72
2023/01/21 12:08:31;;;;;;;27.17;18.20;;;3.00;99.20;;;;;;4857894;29;20053;-73
2023/01/21 12:11:00;;;;;;;;;;;3.00;99.40;;;;;;4871675;29;20051;-72
2023/01/21 12:14:01;;;;;;;32.83;21.63;;;2.90;99.30;;;;;;4880462;29;20734;-72
2023/01/21 12:16:35;;;;;;;28.77;19.13;;;2.60;99.40;;;;;;4858265;29;20301;-72
2023/01/21 12:19:51;;;;;;;31.33;20.27;;;2.70;99.60;;;;;;4862032;29;20050;-72
2023/01/21 12:22:18;;;;;;;29.83;20.80;;;2.60;99.70;;;;;;4842700;29;20061;-73
2023/01/21 12:25:06;;;;;;;31.73;21.27;;;4.30;99.90;;;;;;4872107;29;20111;-72
2023/01/21 12:27:51;;;;;;;31.65;20.58;;;4.80;99.90;;;;;;4857867;29;20049;-72
2023/01/21 12:30:30;;;;;;;33.08;20.85;;;2.50;99.80;;;;;;4872612;29;20486;-72
2023/01/21 12:33:23;;;;;;;31.88;20.40;;;4.60;99.90;;;;;;4880088;29;20080;-72
2023/01/21 12:36:10;;;;;;;28.55;19.70;;;2.60;99.90;;;;;;4872504;29;20052;-72
2023/01/21 12:38:45;;;;;;;28.67;19.52;;;2.60;99.90;;;;;;4879629;29;20049;-73
2023/01/21 12:41:25;;;;;;;28.63;19.55;;;2.60;99.90;;;;;;4879415;29;20145;-73
2023/01/21 12:43:56;;;;;;;;;;;2.50;99.90;;;;;;4861763;29;20061;-72
2023/01/21 12:46:35;;;;;;;28.63;18.17;;;2.50;99.90;;;;;;4861334;29;19928;-72
2023/01/21 12:49:10;;;;;;;29.33;19.95;;;2.60;99.90;;;;;;4860933;29;20816;-72
2023/01/21 12:51:53;;;;;;;33.47;18.05;;;2.60;99.90;;;;;;4873848;29;20048;-72
2023/01/21 12:54:42;;;;;;;29.65;18.88;;;2.70;99.90;;;;;;4862644;29;20044;-73
2023/01/21 12:57:37;;;;;;;31.52;21.40;;;2.60;99.80;;;;;;4842562;29;20085;-72
2023/01/21 13:00:25;;;;;;;30.50;19.83;;;2.60;99.90;;;;;;4841681;29;20046;-72
2023/01/21 13:03:08;;;;;;;33.00;20.38;;;4.50;99.90;;;;;;4856557;29;20074;-72
2023/01/21 13:05:59;;;;;;;37.38;20.92;;;2.40;99.90;;;;;;4857391;29;20045;-72
2023/01/21 13:08:53;;;;;;;44.72;23.42;;;2.40;99.90;;;;;;4857396;29;20411;-72
2023/01/21 13:11:44;;;;;;;30.98;20.15;;;2.20;99.90;;;;;;4873875;29;20419;-72
2023/01/21 13:14:44;;;;;;;30.63;19.45;;;2.30;99.90;;;;;;4882331;29;20053;-72
2023/01/21 13:17:19;;;;;;;29.88;19.85;;;2.30;99.90;;;;;;4869905;29;20053;-72
2023/01/21 13:19:46;;;;;;;34.05;18.92;;;2.10;99.90;;;;;;4875679;29;20049;-72
2023/01/21 13:22:24;;;;;;;28.45;19.02;;;2.20;99.90;;;;;;4867148;29;20048;-73
2023/01/21 13:25:09;;;;;;;26.35;18.55;;;2.40;99.90;;;;;;4863500;29;20052;-73
2023/01/21 13:27:39;;;;;;;26.80;18.25;;;2.40;99.90;;;;;;4875107;29;20070;-72
2023/01/21 13:30:39;;;;;;;26.13;18.42;;;2.80;99.90;;;;;;4859424;29;20068;-73
2023/01/21 13:33:27;;;;;;;28.67;19.92;;;2.60;99.90;;;;;;4856562;29;20068;-72
2023/01/21 13:36:05;;;;;;;24.90;17.23;;;2.60;99.90;;;;;;4873782;29;20056;-72
2023/01/21 13:38:34;;;;;;;23.83;18.17;;;2.60;99.90;;;;;;4875798;29;20082;-72
2023/01/21 13:41:11;;;;;;;28.45;18.80;;;2.70;99.90;;;;;;4878036;29;20574;-73
2023/01/21 13:44:35;;;;;;;26.63;17.63;;;2.40;99.90;;;;;;4893835;29;20072;-72
2023/01/21 13:47:16;;;;;;;22.58;16.52;;;2.40;99.90;;;;;;4864259;29;20069;-73
2023/01/21 13:49:52;;;;;;;27.25;17.45;;;2.50;99.90;;;;;;4878229;29;20562;-73
2023/01/21 13:52:24;;;;;;;27.33;17.30;;;2.40;99.90;;;;;;4890003;29;20041;-72
2023/01/21 13:55:09;;;;;;;25.65;17.63;;;2.30;99.90;;;;;;4862843;29;20057;-72
2023/01/21 13:57:42;;;;;;;25.17;15.40;;;2.40;99.90;;;;;;4893672;29;20660;-73
2023/01/21 14:00:38;;;;;;;21.77;15.75;;;2.40;99.90;;;;;;4882019;29;20048;-70
2023/01/21 14:03:18;;;;;;;24.30;16.65;;;2.20;99.90;;;;;;4864076;29;20508;-68
2023/01/21 14:05:58;;;;;;;26.10;16.58;;;2.60;99.90;;;;;;4869115;29;20052;-74
2023/01/21 14:08:58;;;;;;;23.45;16.67;;;2.60;99.90;;;;;;4853494;29;20049;-71
2023/01/21 14:11:56;;;;;;;22.50;15.63;;;2.60;99.90;;;;;;4863320;29;20061;-73
2023/01/21 14:14:49;;;;;;;22.77;15.48;;;2.70;99.90;;;;;;4871331;29;20755;-72
2023/01/21 14:17:40;;;;;;;23.98;15.00;;;2.60;99.80;;;;;;4860758;29;20489;-75
2023/01/21 14:20:38;;;;;;;21.88;13.73;;;2.70;99.60;;;;;;4864363;29;20057;-74
2023/01/21 14:23:19;;;;;;;19.63;14.30;;;2.70;99.80;;;;;;4878016;29;20059;-74
2023/01/21 14:26:08;;;;;;;20.48;13.55;;;2.40;99.80;;;;;;4876087;29;20815;-74
2023/01/21 14:28:45;;;;;;;18.13;13.73;;;2.50;99.90;;;;;;4860526;29;20064;-74
2023/01/21 14:31:19;;;;;;;19.85;14.27;;;2.60;99.90;;;;;;4844650;29;20058;-74
2023/01/21 14:33:59;;;;;;;22.65;14.23;;;2.60;99.90;;;;;;4883229;29;20037;-74
2023/01/21 14:36:26;;;;;;;;;;;2.50;99.90;;;;;;4857928;29;20049;-74
2023/01/21 14:39:13;;;;;;;23.25;13.50;;;2.80;99.90;;;;;;4873885;29;19979;-72
2023/01/21 14:42:01;;;;;;;19.08;12.13;;;2.50;99.90;;;;;;4860462;29;20466;-72
2023/01/21 14:44:36;;;;;;;19.13;12.07;;;2.50;99.90;;;;;;4861927;29;20059;-72
2023/01/21 14:47:35;;;;;;;19.25;13.80;;;2.40;99.90;;;;;;4893922;29;20092;-73
2023/01/21 14:50:02;;;;;;;18.30;13.35;;;2.30;99.90;;;;;;4886004;29;20056;-73
2023/01/21 14:52:43;;;;;;;22.55;13.88;;;2.30;99.90;;;;;;4855558;29;20396;-73
2023/01/21 14:55:28;;;;;;;21.92;13.98;;;3.60;99.90;;;;;;4856627;29;20060;-73
2023/01/21 14:57:56;;;;;;;18.35;13.18;;;2.20;99.90;;;;;;4854614;29;20063;-73
2023/01/21 15:00:30;;;;;;;24.15;14.07;;;2.70;99.90;;;;;;4858539;29;20048;-73
2023/01/21 15:03:25;;;;;;;19.30;13.70;;;2.20;99.90;;;;;;4875434;29;20057;-73
2023/01/21 15:05:55;;;;;;;21.30;14.30;;;2.20;99.90;;;;;;4869884;29;20430;-73
2023/01/21 15:08:44;;;;;;;15.07;12.15;;;2.90;99.90;;;;;;4857947;29;20053;-73
2023/01/21 15:11:25;;;;;;;18.05;12.45;;;2.30;99.90;;;;;;4874554;29;20052;-73
2023/01/21 15:14:13;;;;;;;19.45;12.63;;;2.20;99.90;;;;;;4882004;29;20068;-73
2023/01/21 15:16:41;;;;;;;22.55;13.10;;;1.90;99.90;;;;;;4872052;29;20037;-73
2023/01/21 15:19:15;;;;;;;17.70;11.73;;;4.00;99.90;;;;;;4857028;29;20055;-73
2023/01/21 15:22:06;;;;;;;20.30;13.70;;;1.90;99.90;;;;;;4865388;29;20309;-73
2023/01/21 15:24:33;;;;;;;22.85;14.50;;;1.50;99.90;;;;;;4883474;29;20806;-74
2023/01/21 15:27:19;;;;;;;18.42;13.35;;;2.20;99.90;;;;;;4870989;29;20049;-73
2023/01/21 15:29:53;;;;;;;26.90;15.77;;;2.20;99.90;;;;;;4870153;29;20113;-73
2023/01/21 15:32:29;;;;;;;18.55;12.15;;;2.00;99.90;;;;;;4832381;29;20131;-73
2023/01/21 15:35:07;;;;;;;20.25;13.15;;;2.10;99.90;;;;;;4861211;29;20056;-73
2023/01/21 15:37:37;;;;;;;20.30;14.35;;;2.00;99.90;;;;;;4879207;29;20056;-73
2023/01/21 15:40:16;;;;;;;19.33;13.63;;;2.00;99.90;;;;;;4867313;29;20120;-73
2023/01/21 15:42:57;;;;;;;20.25;12.63;;;2.10;99.90;;;;;;4879166;29;20045;-73
2023/01/21 15:46:22;;;;;;;19.88;13.35;;;2.10;99.90;;;;;;4877382;29;20056;-73
2023/01/21 15:48:54;;;;;;;19.48;13.57;;;2.00;99.90;;;;;;4825867;29;20153;-73
2023/01/21 15:51:49;;;;;;;17.40;13.50;;;2.00;99.90;;;;;;4818410;29;20457;-73
2023/01/21 15:54:43;;;;;;;19.65;14.55;;;1.80;99.90;;;;;;4871996;29;20952;-73
2023/01/21 15:57:34;;;;;;;21.45;13.88;;;1.80;99.90;;;;;;4885023;29;20108;-73
2023/01/21 16:00:28;;;;;;;26.00;15.60;;;2.00;99.90;;;;;;4872785;29;20049;-73
2023/01/21 16:03:14;;;;;;;23.70;15.15;;;1.90;99.90;;;;;;4870550;29;20053;-74
2023/01/21 16:05:56;;;;;;;22.50;14.10;;;3.00;99.90;;;;;;4877972;29;20080;-74
2023/01/21 16:08:29;;;;;;;20.38;14.10;;;1.80;99.90;;;;;;4865889;29;20501;-74
2023/01/21 16:11:43;;;;;;;18.38;13.30;;;1.80;99.90;;;;;;4885315;29;20040;-74
2023/01/21 16:14:35;;;;;;;19.33;13.65;;;3.80;99.90;;;;;;4880222;29;20045;-72
2023/01/21 16:17:25;;;;;;;19.70;13.27;;;1.90;99.90;;;;;;4874070;29;20068;-72
2023/01/21 16:19:55;;;;;;;21.10;13.07;;;1.90;99.90;;;;;;4835476;29;20068;-73
2023/01/21 16:22:25;;;;;;;20.55;14.25;;;1.80;99.90;;;;;;4821972;29;20069;-73
2023/01/21 16:24:58;;;;;;;22.67;14.05;;;1.80;99.90;;;;;;4807881;29;20053;-75
2023/01/21 16:27:29;;;;;;;18.08;12.70;;;1.80;99.90;;;;;;4822345;29;20118;-74
2023/01/21 16:29:59;;;;;;;18.55;12.57;;;1.90;99.90;;;;;;4830034;29;20054;-75
2023/01/21 16:32:26;;;;;;;20.58;13.20;;;2.60;99.90;;;;;;4827596;29;20045;-74
2023/01/21 16:34:53;;;;;;;17.08;12.45;;;1.70;99.90;;;;;;4821965;29;20857;-74
2023/01/21 16:37:23;;;;;;;16.48;11.38;;;2.50;99.90;;;;;;4807935;29;20104;-74
2023/01/21 16:39:54;;;;;;;20.45;12.55;;;1.70;99.90;;;;;;4833475;29;20052;-74
2023/01/21 16:42:23;;;;;;;15.63;11.95;;;1.70;99.90;;;;;;4821625;29;20049;-74
2023/01/21 16:44:51;;;;;;;16.92;12.45;;;1.70;99.90;;;;;;4824986;29;20144;-74
2023/01/21 16:47:25;;;;;;;16.33;11.20;;;1.70;99.90;;;;;;4838008;29;20042;-75
2023/01/21 16:49:53;;;;;;;17.33;12.63;;;2.10;99.90;;;;;;4837807;29;20461;-74
2023/01/21 16:52:23;;;;;;;18.60;12.15;;;1.60;99.90;;;;;;4829170;29;20045;-74
2023/01/21 16:54:54;;;;;;;18.92;13.40;;;1.60;99.90;;;;;;4841209;29;20046;-74
2023/01/21 16:57:30;;;;;;;17.25;12.40;;;1.40;99.90;;;;;;4862386;29;20061;-75
2023/01/21 17:00:00;;;;;;;18.17;12.98;;;1.60;99.90;;;;;;4875412;29;20045;-75
2023/01/21 17:02:30;;;;;;;21.45;14.45;;;2.10;99.90;;;;;;4861893;29;20051;-74
2023/01/21 17:05:00;;;;;;;21.77;14.90;;;1.60;99.90;;;;;;4874516;29;20052;-75
2023/01/21 17:07:33;;;;;;;20.02;14.35;;;3.40;99.90;;;;;;4859992;29;20087;-74
2023/01/21 17:10:07;;;;;;;17.85;12.43;;;1.60;99.90;;;;;;4875059;29;20534;-74
2023/01/21 17:12:34;;;;;;;19.23;12.00;;;1.70;99.90;;;;;;4882101;29;20044;-74
2023/01/21 17:15:16;;;;;;;19.38;13.88;;;1.50;99.90;;;;;;4856467;29;20049;-74
2023/01/21 17:17:44;;;;;;;19.42;12.70;;;1.50;99.90;;;;;;4846902;29;20048;-74
2023/01/21 17:20:38;;;;;;;18.52;12.40;;;1.70;99.90;;;;;;4871139;29;20492;-74
2023/01/21 17:23:36;;;;;;;22.35;14.93;;;1.60;99.90;;;;;;4874727;29;20060;-74
2023/01/21 17:26:49;;;;;;;19.30;12.45;;;2.90;99.90;;;;;;4839559;29;20421;-74
2023/01/21 17:29:19;;;;;;;19.95;13.95;;;1.50;99.90;;;;;;4852113;29;20472;-75
2023/01/21 17:32:13;;;;;;;19.05;13.82;;;1.60;99.90;;;;;;4879899;29;20065;-74
2023/01/21 17:34:40;;;;;;;21.88;14.45;;;1.60;99.90;;;;;;4840941;29;20050;-74
2023/01/21 17:37:45;;;;;;;25.63;15.85;;;1.80;99.90;;;;;;4851362;29;20470;-75
2023/01/21 17:40:29;;;;;;;23.88;15.10;;;1.60;99.90;;;;;;4854695;29;20136;-74
2023/01/21 17:42:58;;;;;;;18.48;13.63;;;3.30;99.90;;;;;;4854734;29;20089;-74
2023/01/21 17:45:36;;;;;;;17.67;13.35;;;2.20;99.90;;;;;;4855399;29;20157;-75
2023/01/21 17:48:04;;;;;;;20.77;14.52;;;1.80;99.90;;;;;;4839059;29;20543;-75
2023/01/21 17:50:36;;;;;;;16.05;12.52;;;1.90;99.90;;;;;;4842845;29;20052;-76
2023/01/21 17:53:08;;;;;;;18.10;13.75;;;1.80;99.90;;;;;;4855550;29;20120;-76
2023/01/21 17:55:37;;;;;;;23.13;13.30;;;1.80;99.90;;;;;;4854658;29;20177;-76
2023/01/21 17:58:42;;;;;;;21.20;14.65;;;1.80;99.90;;;;;;4854492;29;20128;-76
2023/01/21 18:01:09;;;;;;;22.73;14.80;;;1.80;99.90;;;;;;4848483;29;20691;-76
2023/01/21 18:03:36;;;;;;;18.45;13.80;;;1.80;99.90;;;;;;4846072;29;20057;-76
2023/01/21 18:06:05;;;;;;;20.35;13.68;;;2.30;99.90;;;;;;4860869;29;20064;-75
2023/01/21 18:08:31;;;;;;;19.45;15.02;;;1.80;99.90;;;;;;4868421;29;20052;-75
2023/01/21 18:10:58;;;;;;;20.13;15.10;;;2.00;99.90;;;;;;4845854;29;20056;-75
2023/01/21 18:13:25;;;;;;;19.88;14.27;;;1.80;99.90;;;;;;4841711;29;20102;-76
2023/01/21 18:15:53;;;;;;;19.00;14.02;;;1.70;99.90;;;;;;4840554;29;20058;-76
2023/01/21 18:18:24;;;;;;;21.00;14.88;;;2.10;99.90;;;;;;4839547;29;20053;-74
2023/01/21 18:20:51;;;;;;;21.95;14.70;;;1.90;99.90;;;;;;4822127;29;20527;-77